Urb Rafael Bermudez, Puerto Rico
Current Conditions -  °F | °C
As of 8:53 PM on Monday 20 Oct 2014 (Local Time) from TJNR Reporting Station
Broken Clouds Broken Clouds  
Wind Chill: 82°   Ceiling: 2400
Heat Index: 88°   Visibility: 10mi
Dew Point: 74°   Wind: 5mph
Humidity: 76%   Direction: 70°ENE
Pressure: 29.98"   Gusts: NA
Location:  18.3304°N, 65.6573°W
Report Text: TJNR 210053Z AUTO 07004KT 10SM BKN024 BKN030 28/23 A2998 RMK AO2 SLP153 T02780233
Loading
Personal Weather Stations






























Interactive Weather Map
Tropical Storm Tracking
New forecast layout! Learn more

10-Day Weather Forecast

Advertisements
Track Severe Weather on mobile